Selected Aviation Weather Reports

Never base important decisions on this or any weather information obtained from a non-NWS site!

Last update: Aug 19, 2017, 12:14 am CDT

 

There are no active watches, warnings or advisories for the Mid-South area.

METAR for KATL, KDFW, KEWR, KLAX, KMEM & KORD

METAR is also known as Meteorological Terminal Aviation Routine Weather Report or Met eorological Aerodrome Report.

Final Testing in progress.

(07/08/17 - 9:36 am)

My sincere thanks for your help!


2017/08/19 04:52 KATL 190452Z 30003KT 10SM FEW250 24/19 A3000 RMK AO2 SLP149 T02390189 403220239

KATL, Aug 19, 2017, 04:52Z
Hartsfield-Jackson Atlanta International Airport
Wind: 300° @ 3 kts
Visibility: 10 Statute miles
Clouds: Few @ 25,000 ft
Altimeter: 30.00 in/Hg
Sea Level Pressure: 1014.9 mb
Temperature: 75.02°F (23.9°C)
Dew Point: 66.02°F (18.9°C)
High Temp, past 24 hrs: 89.96°F (32.2°C)
Low Temp, past 24 hrs: 75.02°F (23.9°C)

2017/08/19 04:53 KDFW 190453Z 11003KT 10SM CLR 27/24 A2998 RMK AO2 SLP141 T02720239

KDFW, Aug 19, 2017, 04:53Z
Dallas-Ft. Worth International Airport
Wind: 110° @ 3 kts
Visibility: 10 Statute miles
Clouds: Skies Clear
Altimeter: 29.98 in/Hg
Sea Level Pressure: 1014.1 mb
Temperature: 80.96°F (27.2°C)
Dew Point: 75.02°F (23.9°C)

2017/08/19 04:51 KEWR 190451Z 23007KT 10SM FEW008 FEW015 SCT080 BKN130 OVC200 23/22 A2979 RMK AO2 SLP087 T02330222 402890228 $

KEWR, Aug 19, 2017, 04:51Z
Newark Liberty International Airport
Wind: 230° @ 7 kts
Visibility: 10 Statute miles
Clouds: Few @ 800 ft
Few @ 1,500 ft
Scattered @ 8,000 ft
Broken @ 13,000 ft
Overcast @ 20,000 ft
Altimeter: 29.79 in/Hg
Sea Level Pressure: 1008.7 mb
Temperature: 73.94°F (23.3°C)
Dew Point: 71.96°F (22.2°C)
High Temp, past 24 hrs: 84.02°F (28.9°C)
Low Temp, past 24 hrs: 73.04°F (22.8°C)
Additional Remarks: 
Maintenance Needed on the System.

2017/08/19 04:53 KLAX 190453Z 27008KT 10SM BKN010 19/17 A2997 RMK AO2 SLP145 T01890167

KLAX, Aug 19, 2017, 04:53Z
Los Angeles International Airport
Wind: 270° @ 8 kts
Visibility: 10 Statute miles
Clouds: Broken @ 1,000 ft
Altimeter: 29.97 in/Hg
Sea Level Pressure: 1014.5 mb
Temperature: 66.02°F (18.9°C)
Dew Point: 62.06°F (16.7°C)

2017/08/19 04:54 KMEM 190454Z 17003KT 10SM FEW250 26/21 A2997 RMK AO2 SLP145 T02610211

KMEM, Aug 19, 2017, 04:54Z
Memphis International Airport
Wind: 170° @ 3 kts
Visibility: 10 Statute miles
Clouds: Few @ 25,000 ft
Altimeter: 29.97 in/Hg
Sea Level Pressure: 1014.5 mb
Temperature: 78.98°F (26.1°C)
Dew Point: 69.98°F (21.1°C)

2017/08/19 04:51 KORD 190451Z 33008KT 10SM FEW050 BKN075 BKN100 22/15 A2989 RMK AO2 SLP117 T02220150

KORD, Aug 19, 2017, 04:51Z
Chicago O’Hare International Airport
Wind: 330° @ 8 kts
Visibility: 10 Statute miles
Clouds: Few @ 5,000 ft
Broken @ 7,500 ft
Broken @ 10,000 ft
Altimeter: 29.89 in/Hg
Sea Level Pressure: 1011.7 mb
Temperature: 71.96°F (22.2°C)
Dew Point: 59°F (15.0°C)

Top of page